Time;durP1;ratioP1;P1;durP2;ratioP2;P2;SDS_P1;SDS_P2;PMS_P1;PMS_P2;Temp;Humidity;BMP_temperature;BMP_pressure;BME280_temperature;BME280_humidity;BME280_pressure;Samples;Min_cycle;Max_cycle;Signal;HPM_P1;HPM_P2
2023/09/05 00:02:19;;;;;;;11.20;4.80;;;;;;;15.93;70.44;100140.80;232801;214;144998;-65
2023/09/05 00:07:27;;;;;;;8.70;4.70;;;;;;;15.86;70.63;100132.16;232913;214;265630;-63
2023/09/05 00:12:32;;;;;;;10.50;4.60;;;;;;;15.83;70.88;100127.85;232823;214;140703;-61
2023/09/05 00:17:37;;;;;;;8.90;5.00;;;;;;;15.86;70.69;100123.02;232779;214;147261;-62
2023/09/05 00:22:41;;;;;;;8.60;5.40;;;;;;;15.85;70.50;100122.52;232697;214;138771;-59
2023/09/05 00:27:45;;;;;;;16.20;6.10;;;;;;;15.82;70.50;100125.80;232701;213;137839;-64
2023/09/05 00:32:50;;;;;;;13.10;6.40;;;;;;;15.76;70.30;100126.35;232748;214;147554;-65
2023/09/05 00:37:55;;;;;;;8.70;5.90;;;;;;;15.68;70.26;100124.39;232890;214;139445;-63
2023/09/05 00:42:59;;;;;;;12.40;5.80;;;;;;;15.64;70.48;100122.69;232704;214;136662;-62
2023/09/05 00:48:07;;;;;;;11.10;5.80;;;;;;;15.57;70.43;100124.20;232700;214;145690;-61
2023/09/05 00:53:10;;;;;;;13.10;5.20;;;;;;;15.50;70.45;100121.27;232661;214;140220;-62
2023/09/05 00:58:14;;;;;;;8.70;4.90;;;;;;;15.39;70.50;100122.12;232665;214;137989;-64
2023/09/05 01:03:17;;;;;;;12.80;5.30;;;;;;;15.40;70.67;100115.11;232798;214;148844;-62
2023/09/05 01:08:52;;;;;;;12.60;5.10;;;;;;;15.39;70.60;100111.08;232640;214;140157;-61
2023/09/05 01:13:57;;;;;;;16.70;5.30;;;;;;;15.29;70.53;100109.73;232876;214;137870;-62
2023/09/05 01:19:14;;;;;;;8.70;4.50;;;;;;;15.23;70.68;100113.35;232670;214;147493;-59
2023/09/05 01:24:21;;;;;;;9.00;4.60;;;;;;;15.14;70.62;100117.30;232648;214;138900;-60
2023/09/05 01:29:29;;;;;;;9.70;5.00;;;;;;;15.08;70.74;100116.27;232718;214;137599;-60
2023/09/05 01:34:35;;;;;;;7.10;4.60;;;;;;;15.01;70.92;100122.80;232709;214;147248;-60
2023/09/05 01:39:39;;;;;;;6.50;4.00;;;;;;;14.93;70.95;100120.09;232772;214;138750;-62
2023/09/05 01:44:44;;;;;;;13.50;4.80;;;;;;;14.89;71.18;100115.11;232650;214;141556;-64
2023/09/05 01:49:49;;;;;;;10.40;5.00;;;;;;;14.92;71.25;100113.52;232704;214;148405;-62
2023/09/05 01:54:54;;;;;;;8.70;4.60;;;;;;;14.94;71.19;100103.92;232625;214;138881;-60
2023/09/05 01:59:58;;;;;;;8.00;4.30;;;;;;;14.90;70.98;100106.66;232777;214;137511;-65
2023/09/05 02:05:06;;;;;;;7.10;4.80;;;;;;;14.83;70.99;100104.95;233237;214;151417;-60
2023/09/05 02:10:10;;;;;;;11.10;4.70;;;;;;;14.78;71.20;100099.55;233421;214;138893;-62
2023/09/05 02:15:14;;;;;;;9.30;4.80;;;;;;;14.71;71.29;100099.48;233463;214;132858;-61
2023/09/05 02:20:20;;;;;;;8.40;4.70;;;;;;;14.65;71.37;100102.73;232790;214;148008;-60
2023/09/05 02:25:23;;;;;;;9.10;4.30;;;;;;;14.57;71.50;100104.23;232755;215;138981;-64
2023/09/05 02:30:29;;;;;;;6.60;3.90;;;;;;;14.53;71.49;100101.46;232700;214;138216;-61
2023/09/05 02:35:36;;;;;;;13.40;4.60;;;;;;;14.51;71.61;100102.30;232704;215;148146;-63
2023/09/05 02:40:45;;;;;;;206.00;154.60;;;;;;;14.48;71.92;100106.04;232744;214;140465;-61
2023/09/05 02:45:52;;;;;;;140.40;112.50;;;;;;;14.53;72.00;100104.36;232699;214;138885;-61
2023/09/05 02:51:04;;;;;;;14.60;6.90;;;;;;;14.51;71.95;100102.48;232753;214;149164;-61
2023/09/05 02:56:08;;;;;;;258.10;216.70;;;;;;;14.49;71.89;100103.82;232782;214;138860;-62
2023/09/05 03:01:15;;;;;;;;;;;;;;;14.47;71.86;100097.02;232732;214;138300;-59
2023/09/05 03:06:20;;;;;;;14.10;6.30;;;;;;;14.45;71.98;100092.98;232825;215;148157;-61
2023/09/05 03:11:24;;;;;;;8.80;4.40;;;;;;;14.38;71.79;100091.64;232721;214;139680;-60
2023/09/05 03:16:29;;;;;;;9.10;4.10;;;;;;;14.32;71.92;100098.80;232651;214;138341;-60
2023/09/05 03:21:35;;;;;;;;;;;;;;;14.31;72.06;100103.48;232777;215;147470;-60
2023/09/05 03:26:40;;;;;;;128.20;105.70;;;;;;;14.36;71.97;100111.23;232808;214;138759;-61
2023/09/05 03:31:46;;;;;;;;;;;;;;;14.39;72.35;100116.53;232760;214;138081;-60
2023/09/05 03:36:52;;;;;;;;;;;;;;;14.58;72.01;100118.29;232817;215;147556;-60
2023/09/05 03:41:56;;;;;;;8.70;4.10;;;;;;;14.42;71.41;100118.52;232640;214;138713;-60
2023/09/05 03:47:00;;;;;;;7.60;4.40;;;;;;;14.25;71.80;100118.10;232723;215;137018;-60
2023/09/05 03:52:05;;;;;;;6.60;4.50;;;;;;;14.19;72.12;100118.65;232670;214;148850;-61
2023/09/05 03:57:10;;;;;;;11.10;4.50;;;;;;;14.22;72.41;100116.88;232526;214;139170;-61
2023/09/05 04:02:15;;;;;;;8.80;4.70;;;;;;;14.19;72.50;100119.76;232844;214;138707;-62
2023/09/05 04:07:23;;;;;;;7.10;4.50;;;;;;;14.20;72.82;100119.85;232548;214;148735;-60
2023/09/05 04:12:26;;;;;;;11.00;5.00;;;;;;;14.27;72.95;100125.30;232744;215;138908;-60
2023/09/05 04:17:33;;;;;;;13.50;4.90;;;;;;;14.29;72.80;100136.13;232763;215;138361;-60
2023/09/05 04:22:39;;;;;;;9.30;5.30;;;;;;;14.23;72.91;100138.79;232768;215;147703;-64
2023/09/05 04:27:45;;;;;;;9.00;5.00;;;;;;;14.20;73.10;100138.23;232746;214;140450;-64
2023/09/05 04:32:53;;;;;;;11.90;5.10;;;;;;;14.15;73.33;100133.88;232774;214;137532;-63
2023/09/05 04:37:57;;;;;;;12.30;4.80;;;;;;;14.12;73.52;100137.25;232803;215;147577;-63
2023/09/05 04:43:04;;;;;;;9.10;4.60;;;;;;;14.15;73.95;100141.37;232661;214;140822;-63
2023/09/05 04:48:07;;;;;;;12.30;5.60;;;;;;;14.24;74.12;100142.48;232708;215;137433;-62
2023/09/05 04:53:12;;;;;;;12.50;6.20;;;;;;;14.33;74.30;100143.35;232627;214;147690;-61
2023/09/05 04:58:16;;;;;;;17.30;5.90;;;;;;;14.39;74.07;100142.80;232591;214;139296;-62
2023/09/05 05:03:19;;;;;;;21.00;5.20;;;;;;;14.45;73.80;100141.94;232718;215;137564;-61
2023/09/05 05:08:26;;;;;;;11.30;4.60;;;;;;;14.47;73.60;100147.52;232857;215;149322;-61
2023/09/05 05:13:37;;;;;;;14.40;5.00;;;;;;;14.49;73.63;100152.39;232631;215;139518;-58
2023/09/05 05:18:40;;;;;;;13.00;5.10;;;;;;;14.48;73.52;100149.23;232734;214;140517;-59
2023/09/05 05:23:45;;;;;;;10.40;4.50;;;;;;;14.51;73.38;100151.57;232767;214;149828;-60
2023/09/05 05:28:49;;;;;;;13.60;4.70;;;;;;;14.63;73.76;100154.27;232657;214;141717;-62
2023/09/05 05:33:54;;;;;;;11.40;4.60;;;;;;;14.74;73.84;100151.05;232598;214;137964;-62
2023/09/05 05:38:59;;;;;;;7.60;5.00;;;;;;;14.83;73.82;100149.27;232823;214;147586;-64
2023/09/05 05:44:04;;;;;;;7.60;4.50;;;;;;;14.92;73.97;100149.27;232844;214;142440;-61
2023/09/05 05:49:09;;;;;;;9.40;4.50;;;;;;;15.02;73.91;100142.39;232607;214;137286;-62
2023/09/05 05:54:13;;;;;;;8.20;5.00;;;;;;;15.11;73.89;100150.77;232710;215;147968;-64
2023/09/05 05:59:17;;;;;;;8.90;4.20;;;;;;;15.19;73.89;100149.38;232560;214;140491;-62
2023/09/05 06:04:23;;;;;;;14.20;5.10;;;;;;;15.30;73.83;100152.96;232650;215;138394;-59
2023/09/05 06:09:27;;;;;;;12.20;4.70;;;;;;;15.46;73.84;100147.42;232654;215;147616;-60
2023/09/05 06:14:33;;;;;;;14.90;5.00;;;;;;;15.65;73.68;100149.09;232785;214;138867;-61
2023/09/05 06:19:40;;;;;;;12.60;4.60;;;;;;;15.82;73.31;100144.93;232752;214;138162;-62
2023/09/05 06:24:45;;;;;;;14.50;4.60;;;;;;;15.96;73.11;100147.79;232583;214;147357;-62
2023/09/05 06:29:48;;;;;;;19.20;5.00;;;;;;;16.08;72.94;100149.32;232636;214;139449;-61
2023/09/05 06:34:53;;;;;;;14.80;4.50;;;;;;;16.29;72.90;100150.19;232603;214;137431;-58
2023/09/05 06:39:57;;;;;;;13.70;4.70;;;;;;;16.42;72.17;100147.71;232745;214;149194;-63
2023/09/05 06:45:09;;;;;;;12.80;4.70;;;;;;;16.58;71.91;100145.38;232858;214;138501;-59
2023/09/05 06:50:13;;;;;;;13.00;5.20;;;;;;;16.76;71.74;100141.82;232820;215;139323;-61
2023/09/05 06:55:17;;;;;;;11.70;5.80;;;;;;;16.92;71.35;100146.09;232674;214;147910;-59
2023/09/05 07:00:25;;;;;;;11.30;5.50;;;;;;;17.03;71.28;100142.77;232629;214;140797;-60
2023/09/05 07:05:30;;;;;;;11.00;5.50;;;;;;;17.15;70.96;100141.19;232688;214;137719;-60
2023/09/05 07:10:43;;;;;;;16.40;5.70;;;;;;;17.27;70.70;100139.80;232660;214;149051;-59
2023/09/05 07:15:56;;;;;;;13.70;4.90;;;;;;;17.39;70.69;100141.27;232558;214;139096;-58
2023/09/05 07:21:01;;;;;;;6.90;5.00;;;;;;;17.55;70.68;100139.90;232907;214;138395;-60
2023/09/05 07:26:07;;;;;;;8.50;5.30;;;;;;;17.77;70.09;100132.41;232661;214;147437;-60
2023/09/05 07:31:14;;;;;;;8.60;5.80;;;;;;;17.98;69.65;100126.38;232729;214;138598;-60
2023/09/05 07:36:19;;;;;;;12.40;6.10;;;;;;;18.12;69.47;100126.13;232648;214;140782;-60
2023/09/05 07:41:24;;;;;;;9.60;5.60;;;;;;;18.29;69.11;100129.19;232674;214;149160;-60
2023/09/05 07:46:28;;;;;;;13.30;5.40;;;;;;;18.41;68.75;100127.88;232601;214;139660;-60
2023/09/05 07:51:33;;;;;;;12.30;6.00;;;;;;;18.51;68.11;100131.06;232635;214;137312;-60
2023/09/05 07:56:39;;;;;;;18.40;5.90;;;;;;;18.59;67.97;100130.64;232787;213;149317;-59
2023/09/05 08:01:44;;;;;;;12.70;5.30;;;;;;;18.72;67.62;100130.76;232594;214;138683;-60
2023/09/05 08:06:49;;;;;;;14.50;5.70;;;;;;;18.82;67.49;100126.54;232745;214;137224;-60
2023/09/05 08:11:53;;;;;;;15.50;6.30;;;;;;;18.93;67.14;100121.52;232705;214;148132;-61
2023/09/05 08:16:57;;;;;;;15.20;6.80;;;;;;;19.09;66.39;100122.73;232687;214;140467;-61
2023/09/05 08:22:06;;;;;;;11.80;7.20;;;;;;;19.30;65.21;100114.77;232605;214;137773;-60
2023/09/05 08:27:14;;;;;;;16.20;6.00;;;;;;;19.51;64.95;100112.01;232677;214;147607;-59
2023/09/05 08:32:19;;;;;;;22.50;7.40;;;;;;;19.71;64.93;100104.63;232671;214;138715;-63
2023/09/05 08:37:26;;;;;;;17.90;6.80;;;;;;;19.84;63.88;100098.64;232669;214;137772;-62
2023/09/05 08:42:32;;;;;;;143.20;91.60;;;;;;;19.99;64.14;100100.27;232665;215;147553;-61
2023/09/05 08:47:37;;;;;;;34.90;16.90;;;;;;;20.14;63.75;100100.98;232621;215;138708;-59
2023/09/05 08:52:42;;;;;;;;;;;;;;;20.29;63.47;100094.83;232748;214;137700;-60
2023/09/05 08:57:49;;;;;;;20.20;6.80;;;;;;;20.39;62.60;100086.64;232801;214;148853;-60
2023/09/05 09:02:53;;;;;;;13.70;7.40;;;;;;;20.56;62.82;100086.64;232692;214;138855;-58
2023/09/05 09:07:58;;;;;;;11.40;6.40;;;;;;;20.76;62.92;100091.54;232626;214;137437;-59
2023/09/05 09:13:18;;;;;;;14.90;6.20;;;;;;;20.89;62.43;100088.02;232823;214;148387;-60
2023/09/05 09:18:31;;;;;;;7.80;5.60;;;;;;;21.01;61.54;100088.01;232598;214;140887;-60
2023/09/05 09:23:35;;;;;;;8.80;4.90;;;;;;;21.15;61.07;100092.02;232616;214;137836;-61
2023/09/05 09:28:40;;;;;;;9.10;4.80;;;;;;;21.30;60.34;100092.37;232672;214;147463;-59
2023/09/05 09:33:55;;;;;;;10.50;4.70;;;;;;;21.45;59.83;100089.57;232647;214;138881;-59
2023/09/05 09:39:22;;;;;;;6.90;3.60;;;;;;;21.59;58.96;100086.34;232804;214;138229;-60
2023/09/05 09:44:32;;;;;;;6.00;3.70;;;;;;;21.72;58.08;100081.34;232818;214;148922;-60
2023/09/05 09:49:45;;;;;;;8.30;3.80;;;;;;;21.82;57.41;100078.56;232607;214;138536;-60
2023/09/05 09:54:55;;;;;;;6.00;3.70;;;;;;;21.94;56.10;100079.48;232602;214;137261;-60
2023/09/05 10:00:15;;;;;;;33.80;21.20;;;;;;;22.08;55.12;100076.54;232691;214;147285;-59
2023/09/05 10:05:25;;;;;;;8.50;5.00;;;;;;;22.34;53.94;100078.42;232611;214;138719;-58
2023/09/05 10:10:30;;;;;;;7.30;4.40;;;;;;;22.56;53.12;100072.73;232759;214;137589;-63
2023/09/05 10:15:40;;;;;;;16.10;5.50;;;;;;;22.83;53.59;100067.41;232660;214;149293;-60
2023/09/05 10:20:50;;;;;;;11.70;4.30;;;;;;;23.12;53.75;100062.23;232799;214;140246;-59
2023/09/05 10:25:55;;;;;;;11.30;5.50;;;;;;;23.32;52.56;100058.67;232561;214;138228;-58
2023/09/05 10:31:13;;;;;;;10.50;4.80;;;;;;;23.48;51.98;100058.56;232704;214;147600;-62
2023/09/05 10:36:42;;;;;;;7.10;3.60;;;;;;;23.70;50.17;100053.43;232662;214;138793;-59
2023/09/05 10:41:48;;;;;;;8.60;3.50;;;;;;;23.85;49.56;100051.77;232707;214;137217;-59
2023/09/05 10:46:56;;;;;;;5.80;3.50;;;;;;;24.00;48.82;100041.89;232692;215;147498;-58
2023/09/05 10:52:21;;;;;;;44.90;35.20;;;;;;;24.05;47.29;100041.18;232660;214;139709;-62
2023/09/05 10:57:36;;;;;;;8.60;4.60;;;;;;;24.00;47.50;100038.73;232784;214;138183;-61
2023/09/05 11:02:45;;;;;;;11.40;3.90;;;;;;;24.01;46.97;100027.82;232951;214;149216;-61
2023/09/05 11:07:54;;;;;;;10.20;4.40;;;;;;;24.17;47.55;100024.00;232737;214;139050;-60
2023/09/05 11:13:14;;;;;;;7.10;4.00;;;;;;;24.38;45.75;100016.75;232709;215;138642;-59
2023/09/05 11:18:21;;;;;;;7.00;3.40;;;;;;;24.46;46.29;100009.88;232794;214;148244;-58
2023/09/05 11:23:29;;;;;;;6.20;3.30;;;;;;;24.78;46.08;100007.66;232630;214;140733;-60
2023/09/05 11:28:35;;;;;;;7.90;3.10;;;;;;;25.00;45.75;100002.97;232752;215;138163;-61
2023/09/05 11:33:39;;;;;;;3.80;2.60;;;;;;;25.06;44.63;99998.66;232636;214;147560;-58
2023/09/05 11:38:47;;;;;;;8.70;3.30;;;;;;;25.18;44.17;99990.66;232803;214;140210;-60
2023/09/05 11:43:56;;;;;;;7.90;3.50;;;;;;;25.40;44.40;99979.88;232817;214;138191;-59
2023/09/05 11:48:59;;;;;;;9.20;3.20;;;;;;;25.58;44.66;99971.36;232679;214;149682;-58
2023/09/05 11:54:07;;;;;;;4.90;2.80;;;;;;;25.67;44.17;99962.71;232636;214;140344;-59
2023/09/05 11:59:11;;;;;;;4.80;3.50;;;;;;;25.80;43.54;99960.98;232662;214;139873;-58
2023/09/05 12:04:17;;;;;;;5.50;3.00;;;;;;;26.00;43.72;99958.39;232717;214;147452;-59
2023/09/05 12:09:21;;;;;;;3.10;2.40;;;;;;;26.31;42.70;99949.64;232870;214;139372;-59
2023/09/05 12:14:53;;;;;;;4.00;2.60;;;;;;;26.47;41.61;99947.23;232651;214;137282;-61
2023/09/05 12:19:58;;;;;;;4.70;2.30;;;;;;;26.56;41.40;99942.64;232643;214;147398;-60
2023/09/05 12:25:16;;;;;;;8.70;2.60;;;;;;;26.79;40.92;99927.41;232754;215;138827;-62
2023/09/05 12:30:25;;;;;;;5.10;2.50;;;;;;;26.87;40.65;99919.53;232714;214;139134;-59
2023/09/05 12:35:31;;;;;;;4.00;2.70;;;;;;;26.96;40.05;99912.27;232745;215;149151;-61
2023/09/05 12:40:37;;;;;;;8.50;3.10;;;;;;;27.12;39.02;99908.42;232664;215;139142;-60
2023/09/05 12:45:44;;;;;;;9.00;3.30;;;;;;;27.22;39.18;99906.34;232872;214;136802;-59
2023/09/05 12:50:49;;;;;;;8.60;3.00;;;;;;;27.38;39.30;99910.69;232704;214;147542;-57
2023/09/05 12:55:56;;;;;;;208.00;154.80;;;;;;;27.58;38.74;99907.56;232668;214;139470;-57
2023/09/05 13:01:02;;;;;;;8.20;6.20;;;;;;;27.84;38.41;99903.15;232671;214;137582;-59
2023/09/05 13:06:06;;;;;;;9.30;4.90;;;;;;;27.89;38.57;99900.89;232702;214;148966;-57
2023/09/05 13:11:13;;;;;;;8.30;4.80;;;;;;;27.90;38.61;99894.45;232601;214;138832;-59
2023/09/05 13:16:18;;;;;;;9.20;4.10;;;;;;;28.00;38.67;99883.36;232769;214;137792;-57
2023/09/05 13:21:24;;;;;;;5.60;2.90;;;;;;;28.16;37.68;99880.14;232767;214;148320;-57
2023/09/05 13:26:29;;;;;;;4.10;2.80;;;;;;;28.13;37.31;99869.91;232645;214;138707;-57
2023/09/05 13:31:33;;;;;;;5.90;3.30;;;;;;;28.20;37.38;99867.57;232679;214;138044;-57
2023/09/05 13:36:41;;;;;;;5.60;3.10;;;;;;;28.30;37.01;99862.33;232607;214;148481;-57
2023/09/05 13:41:49;;;;;;;3.90;3.00;;;;;;;28.36;37.12;99861.42;232522;214;139622;-58
2023/09/05 13:46:54;;;;;;;5.50;3.50;;;;;;;28.39;36.92;99855.73;232664;214;140529;-58
2023/09/05 13:51:58;;;;;;;14.30;3.40;;;;;;;28.42;36.70;99855.59;232698;214;147416;-59
2023/09/05 13:57:07;;;;;;;12.10;3.50;;;;;;;28.30;35.54;99853.70;232665;214;138769;-57
2023/09/05 14:02:12;;;;;;;8.60;4.90;;;;;;;28.22;35.87;99853.79;232764;214;137890;-59
2023/09/05 14:07:16;;;;;;;5.30;3.40;;;;;;;28.04;35.82;99851.26;232811;214;149240;-59
2023/09/05 14:12:21;;;;;;;8.50;3.40;;;;;;;27.63;36.13;99849.09;232666;214;139833;-58
2023/09/05 14:17:28;;;;;;;5.30;3.40;;;;;;;27.14;36.78;99850.08;232775;214;137795;-57
2023/09/05 14:22:33;;;;;;;6.20;3.00;;;;;;;26.62;37.51;99846.17;232621;214;147452;-57
2023/09/05 14:27:38;;;;;;;7.50;3.60;;;;;;;26.26;38.36;99843.09;232734;214;139023;-58
2023/09/05 14:32:43;;;;;;;111.40;97.00;;;;;;;25.93;39.06;99837.23;232665;214;137414;-58
2023/09/05 14:37:50;;;;;;;9.50;4.60;;;;;;;25.67;39.30;99832.14;232530;213;147987;-59
2023/09/05 14:42:54;;;;;;;;;;;;;;;25.39;39.47;99828.83;232566;214;138668;-57
2023/09/05 17:05:36;;;;;;;11.80;7.10;;;;;;;22.72;49.61;99829.86;231442;224;697941;-60
2023/09/05 17:10:50;;;;;;;10.00;7.30;;;;;;;22.54;49.37;99834.86;233071;216;137108;-58
2023/09/05 17:15:55;;;;;;;9.70;4.40;;;;;;;22.40;49.40;99837.73;232916;216;143839;-57
2023/09/05 17:21:00;;;;;;;9.90;5.50;;;;;;;22.27;50.60;99843.15;232944;216;140656;-59
2023/09/05 17:26:06;;;;;;;6.60;4.30;;;;;;;22.23;51.69;99851.31;232931;216;136277;-61
2023/09/05 17:31:12;;;;;;;17.50;15.10;;;;;;;22.09;51.43;99846.14;232984;216;150974;-62
2023/09/05 17:36:17;;;;;;;53.80;44.10;;;;;;;21.93;52.03;99854.35;232953;216;139995;-60
2023/09/05 17:41:21;;;;;;;24.20;17.90;;;;;;;21.86;52.93;99853.95;232906;216;138287;-59
2023/09/05 17:46:28;;;;;;;10.80;8.60;;;;;;;21.86;53.58;99853.95;233086;216;144256;-60
2023/09/05 17:51:32;;;;;;;11.90;7.10;;;;;;;21.77;54.16;99850.30;232957;216;138835;-60
2023/09/05 17:56:37;;;;;;;13.90;6.90;;;;;;;21.66;54.93;99852.30;232985;216;137792;-60
2023/09/05 18:01:43;;;;;;;10.30;6.10;;;;;;;21.56;55.68;99854.34;232964;216;145496;-59
2023/09/05 18:06:50;;;;;;;10.30;5.10;;;;;;;21.43;55.31;99857.37;233017;216;140025;-59
2023/09/05 18:11:54;;;;;;;10.80;6.80;;;;;;;21.19;54.65;99852.76;233056;216;137524;-57
2023/09/05 18:16:57;;;;;;;141.20;105.60;;;;;;;20.91;55.13;99846.86;233082;216;147051;-62
2023/09/05 18:22:01;;;;;;;12.00;7.60;;;;;;;20.72;56.10;99842.77;232725;216;139595;-59
2023/09/05 18:27:10;;;;;;;8.40;5.70;;;;;;;20.52;57.11;99842.30;232772;217;137980;-59
2023/09/05 18:32:14;;;;;;;11.50;5.90;;;;;;;20.32;57.66;99838.07;232872;216;145848;-57
2023/09/05 18:37:19;;;;;;;;;;;;;;;20.15;58.45;99843.79;232687;216;139127;-59
2023/09/05 18:42:23;;;;;;;15.10;6.10;;;;;;;19.95;59.05;99845.55;232901;216;131600;-59
2023/09/05 18:47:29;;;;;;;15.50;6.50;;;;;;;19.80;59.96;99844.13;232674;217;146533;-61
2023/09/05 18:52:34;;;;;;;20.70;7.00;;;;;;;19.68;60.85;99846.32;232812;217;139774;-62
2023/09/05 18:57:39;;;;;;;15.90;6.70;;;;;;;19.55;61.31;99843.56;232869;216;137907;-61
2023/09/05 19:02:44;;;;;;;13.10;6.70;;;;;;;19.44;61.77;99847.46;232720;216;145968;-62
2023/09/05 19:07:50;;;;;;;14.30;7.00;;;;;;;19.34;62.32;99847.77;232848;216;140597;-61
2023/09/05 19:12:58;;;;;;;12.00;6.90;;;;;;;19.23;62.84;99847.96;232820;216;138224;-60
2023/09/05 19:18:02;;;;;;;18.40;6.80;;;;;;;19.13;63.22;99846.48;232687;217;147309;-61
2023/09/05 19:23:08;;;;;;;15.80;7.50;;;;;;;19.03;63.74;99840.34;232837;216;140186;-61
2023/09/05 19:28:12;;;;;;;23.20;9.10;;;;;;;18.93;63.97;99836.65;232880;216;137318;-61
2023/09/05 19:33:17;;;;;;;22.20;9.10;;;;;;;18.82;64.51;99832.95;232825;216;146383;-60
2023/09/05 19:38:22;;;;;;;15.40;9.20;;;;;;;18.72;65.06;99833.33;232854;216;138830;-62
2023/09/05 19:43:25;;;;;;;17.50;10.10;;;;;;;18.61;65.08;99834.79;232887;216;138669;-61
2023/09/05 19:48:33;;;;;;;16.90;11.20;;;;;;;18.58;65.33;99829.48;232919;216;145812;-60
2023/09/05 19:53:41;;;;;;;20.60;12.60;;;;;;;18.58;65.49;99829.86;232899;216;139975;-60
2023/09/05 19:58:46;;;;;;;24.50;13.10;;;;;;;18.56;65.68;99825.86;232974;216;137555;-63
2023/09/05 20:03:51;;;;;;;23.10;14.60;;;;;;;18.49;65.65;99826.63;233002;216;146877;-63
2023/09/05 20:08:59;;;;;;;26.40;16.10;;;;;;;18.38;65.79;99824.09;232790;216;138868;-61
2023/09/05 20:14:03;;;;;;;30.70;17.70;;;;;;;18.27;66.04;99821.98;232883;216;137711;-62
2023/09/05 20:19:09;;;;;;;29.90;19.30;;;;;;;18.16;66.18;99822.30;232931;216;145738;-62
2023/09/05 20:24:13;;;;;;;32.40;20.60;;;;;;;18.06;66.55;99821.66;232913;216;140760;-61
2023/09/05 20:29:18;;;;;;;33.10;20.40;;;;;;;17.95;66.81;99823.23;232947;216;137064;-60
2023/09/05 20:34:23;;;;;;;34.90;22.60;;;;;;;17.84;67.09;99827.02;232849;216;146213;-60
2023/09/05 20:39:28;;;;;;;36.50;23.00;;;;;;;17.73;67.23;99830.92;232850;216;140374;-61
2023/09/05 20:44:32;;;;;;;36.50;23.30;;;;;;;17.66;67.49;99832.20;232887;214;139138;-61
2023/09/05 20:49:43;;;;;;;37.80;24.00;;;;;;;17.63;67.77;99832.27;232810;216;155480;-61
2023/09/05 20:54:48;;;;;;;36.10;23.70;;;;;;;17.62;67.63;99829.30;232882;216;139001;-60
2023/09/05 20:59:53;;;;;;;37.50;23.90;;;;;;;17.54;67.73;99832.27;232862;216;137249;-60
2023/09/05 21:04:58;;;;;;;38.70;23.10;;;;;;;17.46;67.98;99835.60;233047;216;145658;-61
2023/09/05 21:10:07;;;;;;;44.10;23.50;;;;;;;17.36;68.24;99832.41;232808;216;138768;-60
2023/09/05 21:15:12;;;;;;;35.20;20.90;;;;;;;17.28;68.36;99830.35;232814;216;137462;-61
2023/09/05 21:20:16;;;;;;;;;;;;;;;17.18;68.46;99826.23;232871;216;145567;-61
2023/09/05 21:25:21;;;;;;;29.40;19.90;;;;;;;17.12;68.65;99827.45;232922;216;138811;-60
2023/09/05 21:30:28;;;;;;;28.80;18.60;;;;;;;17.04;68.92;99826.09;232861;216;137314;-61
2023/09/05 21:35:33;;;;;;;25.30;14.90;;;;;;;16.94;68.96;99831.84;233008;216;145524;-61
2023/09/05 21:40:39;;;;;;;24.40;14.40;;;;;;;16.88;69.13;99835.69;232858;216;140183;-60
2023/09/05 21:45:45;;;;;;;22.80;14.50;;;;;;;16.88;69.31;99833.19;232885;216;138025;-62
2023/09/05 21:50:52;;;;;;;23.30;14.50;;;;;;;16.86;69.17;99835.67;232946;215;145788;-62
2023/09/05 21:55:59;;;;;;;19.80;14.20;;;;;;;16.81;69.10;99834.09;232947;216;139017;-62
2023/09/05 22:01:04;;;;;;;22.20;13.00;;;;;;;16.75;69.18;99833.05;232942;216;137255;-61
2023/09/05 22:06:07;;;;;;;21.60;12.70;;;;;;;16.64;69.09;99832.80;232881;216;146030;-64
2023/09/05 22:11:12;;;;;;;19.80;11.70;;;;;;;16.54;69.40;99837.31;233043;216;139919;-62
2023/09/05 22:16:19;;;;;;;19.80;11.50;;;;;;;16.46;69.72;99834.55;232827;216;139035;-61
2023/09/05 22:21:24;;;;;;;17.90;10.80;;;;;;;16.36;69.81;99833.06;232841;216;147230;-62
2023/09/05 22:26:29;;;;;;;16.50;10.00;;;;;;;16.32;69.93;99831.05;232861;216;140010;-62
2023/09/05 22:31:38;;;;;;;16.10;9.30;;;;;;;16.29;69.98;99827.14;232867;216;139703;-61
2023/09/05 22:36:44;;;;;;;16.50;9.90;;;;;;;16.24;70.03;99830.17;232982;216;147568;-62
2023/09/05 22:41:49;;;;;;;17.30;10.40;;;;;;;16.15;70.27;99826.53;233083;216;142459;-63
2023/09/05 22:46:53;;;;;;;24.40;10.50;;;;;;;16.12;70.45;99826.07;233065;216;137735;-63
2023/09/05 22:51:59;;;;;;;17.00;11.50;;;;;;;16.11;70.74;99827.90;232921;216;146868;-62
2023/09/05 22:57:05;;;;;;;19.10;10.70;;;;;;;16.10;70.64;99826.58;232910;216;138594;-61
2023/09/05 23:02:08;;;;;;;20.90;9.90;;;;;;;16.04;70.62;99825.35;232919;216;137340;-62
2023/09/05 23:07:14;;;;;;;19.50;10.50;;;;;;;15.98;70.42;99827.42;232939;216;145775;-61
2023/09/05 23:12:18;;;;;;;15.20;10.50;;;;;;;15.87;70.53;99826.59;232961;216;139142;-62
2023/09/05 23:17:23;;;;;;;17.70;9.80;;;;;;;15.82;70.72;99831.79;233109;216;138467;-62
2023/09/05 23:22:29;;;;;;;14.30;9.00;;;;;;;15.83;70.60;99830.64;233006;216;146063;-60
2023/09/05 23:27:34;;;;;;;15.00;9.10;;;;;;;15.79;70.53;99829.67;232967;216;138964;-63
2023/09/05 23:32:41;;;;;;;16.50;8.70;;;;;;;15.76;70.51;99836.11;232975;216;138121;-64
2023/09/05 23:37:45;;;;;;;13.30;8.30;;;;;;;15.74;70.49;99829.67;232976;211;145723;-64
2023/09/05 23:42:51;;;;;;;14.60;8.20;;;;;;;15.64;70.53;99829.66;232964;216;140380;-62
2023/09/05 23:47:55;;;;;;;11.70;7.80;;;;;;;15.54;70.56;99832.11;233131;216;137061;-62
2023/09/05 23:53:07;;;;;;;11.20;7.40;;;;;;;15.45;70.63;99828.33;232957;216;145573;-62
2023/09/05 23:58:12;;;;;;;13.40;7.60;;;;;;;15.37;71.08;99829.70;232907;216;140227;-61
